createdAt,value
2022-11-17T00:01:35.331Z,96974.20
2022-11-17T00:04:43.841Z,96977.40
2022-11-17T00:07:52.260Z,96986.80
2022-11-17T00:11:02.419Z,96991.00
2022-11-17T00:14:30.985Z,96989.00
2022-11-17T00:17:38.957Z,96978.20
2022-11-17T00:21:05.160Z,96982.60
2022-11-17T00:24:16.600Z,96976.20
2022-11-17T00:27:24.863Z,96977.40
2022-11-17T00:30:58.596Z,96977.80
2022-11-17T00:34:06.928Z,96977.20
2022-11-17T00:37:16.889Z,96977.20
2022-11-17T00:40:23.852Z,96980.00
2022-11-17T00:43:31.816Z,96979.00
2022-11-17T00:46:41.574Z,96979.60
2022-11-17T00:49:49.271Z,96980.20
2022-11-17T00:52:57.628Z,96977.20
2022-11-17T00:56:05.461Z,96973.00
2022-11-17T00:59:15.505Z,96966.20
2022-11-17T01:02:23.566Z,96967.20
2022-11-17T01:05:33.111Z,96959.60
2022-11-17T01:08:41.830Z,96954.00
2022-11-17T01:11:52.192Z,96958.00
2022-11-17T01:15:00.127Z,96952.40
2022-11-17T01:18:09.253Z,96954.00
2022-11-17T01:21:20.644Z,96944.80
2022-11-17T01:24:28.986Z,96947.20
2022-11-17T01:27:36.754Z,96951.40
2022-11-17T01:30:44.951Z,96952.00
2022-11-17T01:33:54.033Z,96951.60
2022-11-17T01:37:20.822Z,96955.20
2022-11-17T01:40:28.556Z,96950.40
2022-11-17T01:43:46.536Z,96937.60
2022-11-17T01:46:59.677Z,96933.00
2022-11-17T01:50:24.729Z,96938.60
2022-11-17T01:53:35.569Z,96943.60
2022-11-17T01:56:52.624Z,96958.20
2022-11-17T02:00:06.271Z,96964.80
2022-11-17T02:03:15.087Z,96968.40
2022-11-17T02:06:29.128Z,96967.00
2022-11-17T02:09:40.619Z,96964.40
2022-11-17T02:12:53.349Z,96961.00
2022-11-17T02:16:01.472Z,96957.00
2022-11-17T02:19:10.762Z,96956.60
2022-11-17T02:22:54.001Z,96955.20
2022-11-17T02:27:15.652Z,96947.00
2022-11-17T02:30:25.796Z,96941.80
2022-11-17T02:33:46.593Z,96932.80
2022-11-17T02:37:05.507Z,96928.20
2022-11-17T02:40:22.103Z,96927.80
2022-11-17T02:44:00.564Z,96920.60
2022-11-17T02:47:14.221Z,96908.60
2022-11-17T02:50:28.448Z,96909.80
2022-11-17T02:53:38.580Z,96928.20
2022-11-17T02:56:47.738Z,96933.00
2022-11-17T02:59:56.601Z,96923.20
2022-11-17T03:03:35.560Z,96916.40
2022-11-17T03:06:58.345Z,96900.00
2022-11-17T03:10:16.733Z,96902.00
2022-11-17T03:13:37.804Z,96898.00
2022-11-17T03:16:57.487Z,96894.40
2022-11-17T03:20:14.860Z,96889.60
2022-11-17T03:23:26.901Z,96891.20
2022-11-17T03:26:40.504Z,96889.40
2022-11-17T03:29:54.372Z,96897.00
2022-11-17T03:33:11.196Z,96909.60
2022-11-17T03:36:29.021Z,96918.60
2022-11-17T03:39:41.823Z,96914.80
2022-11-17T03:42:54.640Z,96922.80
2022-11-17T03:46:10.133Z,96937.20
2022-11-17T03:49:30.735Z,96939.20
2022-11-17T03:52:40.307Z,96951.60
2022-11-17T03:56:00.383Z,96949.80
2022-11-17T03:59:17.541Z,96957.60
2022-11-17T04:02:27.871Z,96956.60
2022-11-17T04:05:35.774Z,96953.00
2022-11-17T04:08:44.521Z,96940.00
2022-11-17T04:12:10.225Z,96935.40
2022-11-17T04:15:36.042Z,96934.60
2022-11-17T04:18:44.847Z,96940.00
2022-11-17T04:21:53.241Z,96935.60
2022-11-17T04:25:00.964Z,96939.60
2022-11-17T04:28:27.418Z,96938.20
2022-11-17T04:31:35.767Z,96938.00
2022-11-17T04:34:44.159Z,96936.60
2022-11-17T04:37:52.255Z,96924.60
2022-11-17T04:41:24.649Z,96932.20
2022-11-17T04:44:34.374Z,96946.00
2022-11-17T04:47:42.960Z,96948.00
2022-11-17T04:50:54.296Z,96949.20
2022-11-17T04:54:02.755Z,96952.20
2022-11-17T04:57:10.554Z,96955.60
2022-11-17T05:00:20.995Z,96954.20
2022-11-17T05:03:28.728Z,96961.60
2022-11-17T05:06:39.408Z,96965.60
2022-11-17T05:09:47.652Z,96962.00
2022-11-17T05:13:13.638Z,96961.80
2022-11-17T05:16:40.675Z,96965.40
2022-11-17T05:19:50.902Z,96963.80
2022-11-17T05:23:12.615Z,96966.40
2022-11-17T05:26:21.592Z,96961.60
2022-11-17T05:29:29.455Z,96958.00
2022-11-17T05:32:37.648Z,96949.20
2022-11-17T05:35:46.090Z,96952.00
2022-11-17T05:38:54.991Z,96957.40
2022-11-17T05:42:02.767Z,96964.00
2022-11-17T05:45:12.852Z,96964.20
2022-11-17T05:48:21.309Z,96970.40
2022-11-17T05:51:30.454Z,96970.20
2022-11-17T05:54:38.271Z,96972.00
2022-11-17T05:57:47.176Z,96978.40
2022-11-17T06:00:58.631Z,96981.40
2022-11-17T06:04:09.498Z,96988.00
2022-11-17T06:07:18.694Z,96982.00
2022-11-17T06:10:29.037Z,96983.20
2022-11-17T06:13:37.190Z,96989.60
2022-11-17T06:16:51.693Z,96994.80
2022-11-17T06:20:06.983Z,96988.00
2022-11-17T06:23:17.027Z,96984.00
2022-11-17T06:26:24.893Z,96996.80
2022-11-17T06:29:33.565Z,97001.20
2022-11-17T06:32:44.402Z,96997.00
2022-11-17T06:35:53.773Z,97004.00
2022-11-17T06:39:02.013Z,96998.80
2022-11-17T06:42:10.150Z,96999.20
2022-11-17T06:45:18.332Z,96999.20
2022-11-17T06:48:27.450Z,97005.60
2022-11-17T06:51:35.452Z,97011.20
2022-11-17T06:54:43.904Z,97017.60
2022-11-17T06:57:53.664Z,97020.20
2022-11-17T07:01:11.393Z,97014.00
2022-11-17T07:04:19.873Z,97006.40
2022-11-17T07:07:28.562Z,97009.40
2022-11-17T07:10:38.556Z,97008.60
2022-11-17T07:13:46.206Z,97004.20
2022-11-17T07:16:54.010Z,97013.40
2022-11-17T07:20:02.435Z,97006.00
2022-11-17T07:23:10.460Z,96999.60
2022-11-17T07:26:19.345Z,97003.80
2022-11-17T07:29:29.022Z,97009.20
2022-11-17T07:32:37.541Z,97001.20
2022-11-17T07:35:45.898Z,97003.20
2022-11-17T07:38:54.354Z,96997.00
2022-11-17T07:42:02.518Z,97001.40
2022-11-17T07:45:12.692Z,97011.80
2022-11-17T07:48:20.503Z,97012.20
2022-11-17T07:51:28.711Z,97002.80
2022-11-17T07:54:36.594Z,97002.20
2022-11-17T07:57:44.574Z,97005.20
2022-11-17T08:00:52.534Z,97009.40
2022-11-17T08:04:01.619Z,97009.20
2022-11-17T08:07:09.651Z,97017.40
2022-11-17T08:10:18.915Z,97016.60
2022-11-17T08:13:28.162Z,97024.60
2022-11-17T08:16:36.441Z,97023.60
2022-11-17T08:19:44.456Z,97022.80
2022-11-17T08:22:56.216Z,97016.40
2022-11-17T08:26:05.042Z,97018.20
2022-11-17T08:29:13.633Z,97031.00
2022-11-17T08:32:22.546Z,97035.20
2022-11-17T08:35:37.384Z,97027.60
2022-11-17T08:38:46.022Z,97029.20
2022-11-17T08:41:55.618Z,97042.40
2022-11-17T08:45:04.049Z,97048.20
2022-11-17T08:48:12.286Z,97054.80
2022-11-17T08:51:20.055Z,97047.20
2022-11-17T08:54:28.256Z,97044.60
2022-11-17T08:57:37.338Z,97050.00
2022-11-17T09:00:47.827Z,97053.40
2022-11-17T09:03:55.872Z,97056.00
2022-11-17T09:07:04.709Z,97064.20
2022-11-17T09:10:15.116Z,97073.40
2022-11-17T09:13:23.664Z,97068.00
2022-11-17T09:16:31.738Z,97072.60
2022-11-17T09:19:42.823Z,97069.20
2022-11-17T09:22:51.015Z,97070.40
2022-11-17T09:25:59.249Z,97070.60
2022-11-17T09:29:07.588Z,97075.00
2022-11-17T09:32:17.125Z,97069.40
2022-11-17T09:35:27.784Z,97069.40
2022-11-17T09:38:37.443Z,97063.80
2022-11-17T09:41:50.281Z,97061.40
2022-11-17T09:45:06.477Z,97058.40
2022-11-17T09:48:40.769Z,97062.60
2022-11-17T09:51:53.568Z,97055.00
2022-11-17T09:55:05.570Z,97056.20
2022-11-17T09:58:28.376Z,97055.20
2022-11-17T10:01:36.639Z,97057.00
2022-11-17T10:04:46.326Z,97064.60
2022-11-17T10:08:00.033Z,97064.40
2022-11-17T10:11:27.289Z,97060.40
2022-11-17T10:14:43.939Z,97048.60
2022-11-17T10:17:53.817Z,97048.20
2022-11-17T10:21:00.236Z,97048.20
2022-11-17T10:24:09.382Z,97044.40
2022-11-17T10:27:26.176Z,97048.20
2022-11-17T10:30:35.188Z,97058.80
2022-11-17T10:33:47.721Z,97057.20
2022-11-17T10:36:56.134Z,97053.20
2022-11-17T10:40:25.710Z,97061.20
2022-11-17T10:43:35.445Z,97056.40
2022-11-17T10:47:03.112Z,97060.80
2022-11-17T10:50:23.257Z,97065.80
2022-11-17T10:53:43.377Z,97062.40
2022-11-17T10:56:59.402Z,97065.60
2022-11-17T11:00:26.904Z,97065.00
2022-11-17T11:03:37.739Z,97067.80
2022-11-17T11:06:46.262Z,97057.40
2022-11-17T11:10:06.045Z,97053.00
2022-11-17T11:13:20.922Z,97055.00
2022-11-17T11:16:32.618Z,97052.60
2022-11-17T11:19:41.079Z,97049.80
2022-11-17T11:22:58.624Z,97045.80
2022-11-17T11:26:24.314Z,97048.80
2022-11-17T11:29:48.885Z,97059.00
2022-11-17T11:33:23.874Z,97063.60
2022-11-17T11:36:43.371Z,97049.20
2022-11-17T11:40:02.765Z,97041.20
2022-11-17T11:43:37.639Z,97039.40
2022-11-17T11:46:59.634Z,97027.80
2022-11-17T11:50:17.523Z,97027.20
2022-11-17T11:53:43.024Z,97028.40
2022-11-17T11:56:53.730Z,97038.80
2022-11-17T12:00:15.099Z,97037.60
2022-11-17T12:03:35.223Z,97041.60
2022-11-17T12:06:54.176Z,97044.20
2022-11-17T12:10:14.905Z,97041.00
2022-11-17T12:13:25.445Z,97043.40
2022-11-17T12:16:37.612Z,97040.20
2022-11-17T12:19:57.383Z,97045.20
2022-11-17T12:23:41.513Z,97053.80
2022-11-17T12:26:50.167Z,97048.80
2022-11-17T12:29:58.502Z,97050.40
2022-11-17T12:33:09.174Z,97052.40
2022-11-17T12:36:34.009Z,97055.00
2022-11-17T12:40:04.869Z,97056.60
2022-11-17T12:43:28.169Z,97051.40
2022-11-17T12:46:37.968Z,97052.00
2022-11-17T12:50:13.867Z,97051.00
2022-11-17T12:53:54.839Z,97042.60
2022-11-17T12:57:11.087Z,97044.80
2022-11-17T13:00:25.977Z,97050.80
2022-11-17T13:03:49.907Z,97049.40
2022-11-17T13:07:07.151Z,97061.40
2022-11-17T13:10:31.174Z,97065.80
2022-11-17T13:13:45.490Z,97068.60
2022-11-17T13:16:55.864Z,97065.60
2022-11-17T13:20:14.732Z,97059.00
2022-11-17T13:23:28.050Z,97067.40
2022-11-17T13:26:38.372Z,97070.80
2022-11-17T13:29:48.044Z,97078.40
2022-11-17T13:32:57.083Z,97077.40
2022-11-17T13:36:20.236Z,97077.80
2022-11-17T13:39:29.422Z,97071.80
2022-11-17T13:42:38.081Z,97077.20
2022-11-17T13:45:47.354Z,97081.60
2022-11-17T13:48:56.467Z,97084.00
2022-11-17T13:52:05.419Z,97088.60
2022-11-17T13:55:20.556Z,97091.20
2022-11-17T13:58:40.086Z,97088.60
2022-11-17T14:01:48.192Z,97082.40
2022-11-17T14:05:24.072Z,97083.60
2022-11-17T14:08:36.529Z,97076.40
2022-11-17T14:11:46.570Z,97073.40
2022-11-17T14:14:54.855Z,97079.60
2022-11-17T14:18:08.386Z,97079.00
2022-11-17T14:21:19.312Z,97086.80
2022-11-17T14:24:28.664Z,97083.20
2022-11-17T14:27:43.365Z,97091.60
2022-11-17T14:30:55.653Z,97090.40
2022-11-17T14:34:05.190Z,97092.40
2022-11-17T14:37:14.352Z,97094.80
2022-11-17T14:40:23.068Z,97099.00
2022-11-17T14:43:32.351Z,97098.40
2022-11-17T14:46:42.092Z,97090.40
2022-11-17T14:49:50.420Z,97091.20
2022-11-17T14:52:58.623Z,97077.80
2022-11-17T14:56:15.057Z,97072.60
2022-11-17T14:59:23.377Z,97075.80
2022-11-17T15:02:32.551Z,97078.60
2022-11-17T15:05:47.326Z,97080.80
2022-11-17T15:09:02.134Z,97080.60
2022-11-17T15:12:11.385Z,97083.40
2022-11-17T15:15:19.606Z,97083.40
2022-11-17T15:18:27.984Z,97091.40
2022-11-17T15:21:37.214Z,97092.00
2022-11-17T15:24:45.829Z,97088.40
2022-11-17T15:27:54.929Z,97092.80
2022-11-17T15:31:12.168Z,97081.20
2022-11-17T15:34:21.578Z,97073.80
2022-11-17T15:37:30.672Z,97066.40
2022-11-17T15:40:39.086Z,97068.60
2022-11-17T15:43:48.634Z,97073.60
2022-11-17T15:46:56.743Z,97074.00
2022-11-17T15:50:05.429Z,97075.00
2022-11-17T15:53:13.607Z,97071.60
2022-11-17T15:56:25.027Z,97068.60
2022-11-17T15:59:34.534Z,97062.00
2022-11-17T16:02:46.311Z,97056.80
2022-11-17T16:05:56.633Z,97049.00
2022-11-17T16:09:06.992Z,97049.40
2022-11-17T16:12:17.831Z,97054.60
2022-11-17T16:15:26.393Z,97046.00
2022-11-17T16:18:37.751Z,97048.20
2022-11-17T16:21:46.381Z,97063.60
2022-11-17T16:24:54.646Z,97073.00
2022-11-17T16:28:02.761Z,97075.20
2022-11-17T16:31:23.482Z,97083.20
2022-11-17T16:34:31.808Z,97096.00
2022-11-17T16:37:39.891Z,97102.40
2022-11-17T16:40:48.984Z,97105.80
2022-11-17T16:43:58.815Z,97112.80
2022-11-17T16:47:05.002Z,97112.20
2022-11-17T16:50:14.140Z,97113.00
2022-11-17T16:53:22.339Z,97117.00
2022-11-17T16:56:30.712Z,97121.60
2022-11-17T16:59:38.628Z,97128.80
2022-11-17T17:02:49.824Z,97127.20
2022-11-17T17:05:58.195Z,97137.40
2022-11-17T17:09:11.192Z,97142.40
2022-11-17T17:12:19.501Z,97139.40
2022-11-17T17:15:29.720Z,97136.60
2022-11-17T17:18:38.544Z,97137.60
2022-11-17T17:21:50.386Z,97131.80
2022-11-17T17:24:58.407Z,97137.60
2022-11-17T17:28:06.528Z,97131.20
2022-11-17T17:31:21.032Z,97127.60
2022-11-17T17:34:30.018Z,97121.40
2022-11-17T17:37:38.366Z,97122.20
2022-11-17T17:40:46.831Z,97118.20
2022-11-17T17:44:04.197Z,97126.60
2022-11-17T17:47:12.185Z,97118.60
2022-11-17T17:50:20.708Z,97123.00
2022-11-17T17:53:29.634Z,97119.80
2022-11-17T17:56:38.374Z,97115.80
2022-11-17T17:59:46.620Z,97107.20
2022-11-17T18:02:54.956Z,97107.80
2022-11-17T18:06:05.255Z,97103.60
2022-11-17T18:09:19.931Z,97101.40
2022-11-17T18:12:29.033Z,97098.20
2022-11-17T18:15:39.799Z,97096.20
2022-11-17T18:18:48.521Z,97094.80
2022-11-17T18:21:57.040Z,97089.40
2022-11-17T18:25:07.847Z,97091.20
2022-11-17T18:28:15.977Z,97092.80
2022-11-17T18:31:26.329Z,97098.00
2022-11-17T18:34:35.474Z,97095.40
2022-11-17T18:37:44.471Z,97098.20
2022-11-17T18:40:56.791Z,97092.20
2022-11-17T18:44:08.400Z,97087.00
2022-11-17T18:47:18.830Z,97089.20
2022-11-17T18:50:27.165Z,97098.40
2022-11-17T18:53:36.104Z,97093.00
2022-11-17T18:56:45.547Z,97094.20
2022-11-17T18:59:53.761Z,97082.00
2022-11-17T19:03:01.934Z,97090.80
2022-11-17T19:06:13.275Z,97081.80
2022-11-17T19:09:21.490Z,97091.60
2022-11-17T19:12:29.741Z,97086.20
2022-11-17T19:15:38.983Z,97085.00
2022-11-17T19:18:49.744Z,97073.20
2022-11-17T19:21:57.910Z,97064.20
2022-11-17T19:25:05.936Z,97068.00
2022-11-17T19:28:17.113Z,97082.20
2022-11-17T19:31:26.264Z,97080.40
2022-11-17T19:34:34.320Z,97079.20
2022-11-17T19:37:43.339Z,97078.80
2022-11-17T19:40:51.665Z,97077.80
2022-11-17T19:44:02.478Z,97083.40
2022-11-17T19:47:11.071Z,97094.20
2022-11-17T19:50:21.192Z,97075.20
2022-11-17T19:53:29.685Z,97070.40
2022-11-17T19:56:38.598Z,97072.00
2022-11-17T19:59:46.578Z,97078.60
2022-11-17T20:02:55.702Z,97075.20
2022-11-17T20:06:06.039Z,97054.00
2022-11-17T20:09:16.268Z,97056.00
2022-11-17T20:12:24.633Z,97073.00
2022-11-17T20:15:35.093Z,97088.80
2022-11-17T20:18:44.761Z,97089.60
2022-11-17T20:21:53.380Z,97091.80
2022-11-17T20:25:03.838Z,97085.60
2022-11-17T20:28:11.973Z,97095.80
2022-11-17T20:31:24.383Z,97101.80
2022-11-17T20:34:32.380Z,97107.20
2022-11-17T20:37:40.927Z,97113.60
2022-11-17T20:40:50.180Z,97123.40
2022-11-17T20:43:59.684Z,97122.40
2022-11-17T20:47:07.899Z,97109.40
2022-11-17T20:50:16.301Z,97111.40
2022-11-17T20:53:24.571Z,97119.60
2022-11-17T20:56:32.784Z,97120.40
2022-11-17T20:59:40.971Z,97106.40
2022-11-17T21:02:50.417Z,97077.40
2022-11-17T21:06:04.923Z,97081.40
2022-11-17T21:09:12.984Z,97090.80
2022-11-17T21:12:21.302Z,97092.60
2022-11-17T21:15:30.284Z,97084.00
2022-11-17T21:18:40.735Z,97075.80
2022-11-17T21:21:50.663Z,97090.60
2022-11-17T21:24:57.068Z,97099.60
2022-11-17T21:28:05.191Z,97099.20
2022-11-17T21:31:17.324Z,97098.80
2022-11-17T21:34:25.405Z,97090.20
2022-11-17T21:37:33.733Z,97086.80
2022-11-17T21:40:43.090Z,97089.00
2022-11-17T21:43:53.980Z,97085.00
2022-11-17T21:47:02.454Z,97080.60
2022-11-17T21:50:13.482Z,97082.60
2022-11-17T21:53:21.696Z,97085.00
2022-11-17T21:56:32.308Z,97083.80
2022-11-17T21:59:40.325Z,97087.80
2022-11-17T22:02:48.946Z,97090.40
2022-11-17T22:06:05.701Z,97085.60
2022-11-17T22:09:14.619Z,97082.80
2022-11-17T22:12:23.025Z,97072.60
2022-11-17T22:15:31.240Z,97064.40
2022-11-17T22:18:39.434Z,97062.60
2022-11-17T22:21:51.256Z,97068.40
2022-11-17T22:25:16.758Z,97064.60
2022-11-17T22:28:29.255Z,97062.00
2022-11-17T22:31:37.359Z,97054.40
2022-11-17T22:34:45.894Z,97050.80
2022-11-17T22:37:53.984Z,97042.80
2022-11-17T22:41:06.413Z,97039.80
2022-11-17T22:44:17.814Z,97041.60
2022-11-17T22:47:25.988Z,97045.00
2022-11-17T22:50:33.944Z,97046.20
2022-11-17T22:53:42.459Z,97049.00
2022-11-17T22:56:50.424Z,97048.00
2022-11-17T22:59:58.767Z,97050.40
2022-11-17T23:03:06.882Z,97050.20
2022-11-17T23:06:15.079Z,97041.60
2022-11-17T23:09:23.405Z,97046.20
2022-11-17T23:12:31.522Z,97046.60
2022-11-17T23:15:44.774Z,97046.60
2022-11-17T23:19:00.163Z,97045.80
2022-11-17T23:22:08.460Z,97054.20
2022-11-17T23:25:16.343Z,97059.60
2022-11-17T23:28:24.757Z,97053.20
2022-11-17T23:31:32.783Z,97048.80
2022-11-17T23:34:40.991Z,97048.00
2022-11-17T23:37:48.974Z,97045.80
2022-11-17T23:41:01.883Z,97041.00
2022-11-17T23:44:10.665Z,97040.60
2022-11-17T23:47:18.653Z,97040.20
2022-11-17T23:50:26.636Z,97044.80
2022-11-17T23:53:34.899Z,97044.00
2022-11-17T23:56:43.931Z,97043.60
2022-11-17T23:59:52.005Z,97044.20
